createdAt,value
2023-05-21T00:02:14.679Z,88.52
2023-05-21T00:04:47.647Z,88.27
2023-05-21T00:07:41.421Z,88.31
2023-05-21T00:10:34.089Z,88.22
2023-05-21T00:13:07.107Z,88.13
2023-05-21T00:15:59.918Z,88.09
2023-05-21T00:18:42.848Z,88.19
2023-05-21T00:21:23.169Z,88.02
2023-05-21T00:24:14.317Z,88.04
2023-05-21T00:27:08.044Z,88.18
2023-05-21T00:30:00.936Z,88.15
2023-05-21T00:32:53.792Z,88.21
2023-05-21T00:35:48.251Z,88.20
2023-05-21T00:38:43.691Z,88.29
2023-05-21T00:41:22.858Z,88.15
2023-05-21T00:44:17.006Z,88.32
2023-05-21T00:47:09.581Z,88.51
2023-05-21T00:49:45.190Z,88.55
2023-05-21T00:52:42.421Z,88.58
2023-05-21T00:55:35.484Z,88.66
2023-05-21T00:58:21.548Z,88.79
2023-05-21T01:01:07.512Z,89.11
2023-05-21T01:03:54.635Z,89.23
2023-05-21T01:06:42.765Z,89.54
2023-05-21T01:09:35.903Z,89.55
2023-05-21T01:12:29.021Z,89.51
2023-05-21T01:15:08.583Z,89.57
2023-05-21T01:18:01.391Z,89.46
2023-05-21T01:20:48.696Z,89.53
2023-05-21T01:23:32.079Z,89.69
2023-05-21T01:26:07.671Z,89.71
2023-05-21T01:29:00.574Z,89.78
2023-05-21T01:32:06.210Z,89.97
2023-05-21T01:35:06.446Z,90.01
2023-05-21T01:37:59.496Z,90.00
2023-05-21T01:40:53.499Z,89.94
2023-05-21T01:43:33.091Z,89.95
2023-05-21T01:46:18.817Z,89.95
2023-05-21T01:48:54.328Z,90.04
2023-05-21T01:51:27.403Z,90.22
2023-05-21T01:54:20.252Z,90.28
2023-05-21T01:57:04.249Z,90.44
2023-05-21T01:59:59.186Z,90.57
2023-05-21T02:02:52.933Z,90.82
2023-05-21T02:05:47.220Z,90.74
2023-05-21T02:08:31.552Z,90.72
2023-05-21T02:11:24.275Z,90.77
2023-05-21T02:14:01.727Z,90.96
2023-05-21T02:16:38.647Z,91.21
2023-05-21T02:19:31.910Z,91.16
2023-05-21T02:22:08.434Z,91.24
2023-05-21T02:24:44.418Z,91.38
2023-05-21T02:27:20.542Z,91.69
2023-05-21T02:30:05.322Z,91.86
2023-05-21T02:33:01.136Z,92.09
2023-05-21T02:35:54.053Z,91.97
2023-05-21T02:38:47.814Z,91.90
2023-05-21T02:41:30.497Z,91.76
2023-05-21T02:44:10.654Z,91.88
2023-05-21T02:47:03.214Z,91.92
2023-05-21T02:49:56.518Z,91.77
2023-05-21T02:52:33.077Z,91.79
2023-05-21T02:55:12.869Z,91.75
2023-05-21T02:58:06.282Z,91.71
2023-05-21T03:00:41.933Z,91.62
2023-05-21T03:03:24.983Z,91.58
2023-05-21T03:06:18.829Z,91.69
2023-05-21T03:09:01.934Z,91.93
2023-05-21T03:11:46.344Z,91.92
2023-05-21T03:14:39.311Z,91.97
2023-05-21T03:17:32.587Z,91.98
2023-05-21T03:20:25.471Z,91.99
2023-05-21T03:23:04.425Z,91.82
2023-05-21T03:25:57.983Z,91.97
2023-05-21T03:28:51.054Z,91.90
2023-05-21T03:31:33.197Z,91.75
2023-05-21T03:34:24.817Z,91.55
2023-05-21T03:37:18.572Z,91.51
2023-05-21T03:39:52.562Z,91.64
2023-05-21T03:42:24.917Z,91.42
2023-05-21T03:44:59.622Z,91.47
2023-05-21T03:47:50.971Z,91.32
2023-05-21T03:50:24.346Z,91.13
2023-05-21T03:52:56.905Z,91.08
2023-05-21T03:55:29.920Z,90.73
2023-05-21T03:58:04.718Z,90.64
2023-05-21T04:00:38.200Z,90.52
2023-05-21T04:03:21.323Z,90.29
2023-05-21T04:05:58.867Z,89.93
2023-05-21T04:08:34.331Z,89.59
2023-05-21T04:11:07.157Z,89.40
2023-05-21T04:13:41.382Z,89.03
2023-05-21T04:16:19.380Z,88.69
2023-05-21T04:18:55.676Z,88.39
2023-05-21T04:21:29.466Z,87.67
2023-05-21T04:24:02.953Z,86.97
2023-05-21T04:26:50.978Z,86.39
2023-05-21T04:29:25.989Z,85.77
2023-05-21T04:32:21.101Z,84.00
2023-05-21T04:34:53.677Z,82.90
2023-05-21T04:37:30.329Z,81.79
2023-05-21T04:40:03.014Z,80.71
2023-05-21T04:42:48.594Z,78.23
2023-05-21T04:45:31.631Z,76.29
2023-05-21T04:48:08.503Z,74.79
2023-05-21T04:50:56.264Z,72.73
2023-05-21T04:53:41.133Z,70.09
2023-05-21T04:56:33.798Z,67.68
2023-05-21T04:59:26.622Z,66.51
2023-05-21T05:01:59.667Z,64.85
2023-05-21T05:04:52.821Z,61.54
2023-05-21T05:07:36.250Z,60.83
2023-05-21T05:10:30.760Z,59.45
2023-05-21T05:13:12.703Z,59.02
2023-05-21T05:16:06.224Z,59.23
2023-05-21T05:18:43.579Z,58.04
2023-05-21T05:21:37.942Z,59.58
2023-05-21T05:24:30.784Z,59.84
2023-05-21T05:27:23.440Z,60.60
2023-05-21T05:30:16.601Z,61.58
2023-05-21T05:32:52.107Z,61.80
2023-05-21T05:35:45.041Z,61.34
2023-05-21T05:38:21.072Z,62.06
2023-05-21T05:40:54.001Z,62.81
2023-05-21T05:43:28.457Z,62.64
2023-05-21T05:46:12.520Z,63.78
2023-05-21T05:48:45.397Z,63.20
2023-05-21T05:51:38.597Z,62.67
2023-05-21T05:54:16.541Z,63.14
2023-05-21T05:56:52.147Z,62.40
2023-05-21T05:59:45.313Z,62.31
2023-05-21T06:02:18.162Z,62.28
2023-05-21T06:05:11.998Z,62.45
2023-05-21T06:07:45.055Z,62.67
2023-05-21T06:10:20.825Z,63.30
2023-05-21T06:12:53.541Z,62.32
2023-05-21T06:15:25.955Z,62.27
2023-05-21T06:18:08.253Z,62.56
2023-05-21T06:21:01.699Z,62.94
2023-05-21T06:23:39.518Z,62.89
2023-05-21T06:26:32.492Z,62.36
2023-05-21T06:29:05.716Z,61.71
2023-05-21T06:31:40.372Z,60.23
2023-05-21T06:34:15.613Z,60.06
2023-05-21T06:36:48.393Z,60.86
2023-05-21T06:39:21.065Z,60.83
2023-05-21T06:41:54.945Z,59.71
2023-05-21T06:44:52.379Z,61.09
2023-05-21T06:47:51.048Z,58.56
2023-05-21T06:50:35.457Z,58.66
2023-05-21T06:53:13.969Z,58.94
2023-05-21T06:55:53.867Z,57.99
2023-05-21T06:58:53.337Z,57.36
2023-05-21T07:01:46.368Z,56.42
2023-05-21T07:04:19.251Z,55.69
2023-05-21T07:07:02.203Z,56.71
2023-05-21T07:09:46.949Z,57.58
2023-05-21T07:12:23.259Z,55.28
2023-05-21T07:15:12.426Z,55.97
2023-05-21T07:18:05.262Z,54.71
2023-05-21T07:20:50.592Z,54.74
2023-05-21T07:23:43.549Z,53.98
2023-05-21T07:26:38.971Z,55.00
2023-05-21T07:29:14.874Z,53.21
2023-05-21T07:32:01.558Z,53.33
2023-05-21T07:34:44.997Z,52.82
2023-05-21T07:37:22.587Z,53.40
2023-05-21T07:40:16.727Z,53.19
2023-05-21T07:43:09.503Z,53.48
2023-05-21T07:45:56.665Z,52.73
2023-05-21T07:48:50.074Z,54.01
2023-05-21T07:51:26.854Z,54.34
2023-05-21T07:53:59.770Z,53.58
2023-05-21T07:56:38.081Z,53.72
2023-05-21T07:59:15.339Z,53.53
2023-05-21T08:01:48.059Z,54.36
2023-05-21T08:04:20.797Z,54.61
2023-05-21T08:06:57.352Z,55.06
2023-05-21T08:09:30.143Z,55.99
2023-05-21T08:12:03.091Z,56.30
2023-05-21T08:14:45.250Z,55.92
2023-05-21T08:17:22.977Z,55.21
2023-05-21T08:20:06.127Z,56.03
2023-05-21T08:22:43.384Z,56.59
2023-05-21T08:25:26.368Z,56.15
2023-05-21T08:28:03.929Z,56.24
2023-05-21T08:30:37.140Z,55.08
2023-05-21T08:33:21.510Z,55.71
2023-05-21T08:36:14.316Z,56.66
2023-05-21T08:39:07.032Z,56.07
2023-05-21T08:41:58.954Z,54.38
2023-05-21T08:44:38.904Z,54.64
2023-05-21T08:47:29.466Z,54.88
2023-05-21T08:50:04.584Z,53.87
2023-05-21T08:52:59.133Z,53.53
2023-05-21T08:55:35.146Z,52.39
2023-05-21T08:58:28.426Z,51.37
2023-05-21T09:01:01.533Z,50.99
2023-05-21T09:03:39.572Z,49.93
2023-05-21T09:06:16.003Z,49.49
2023-05-21T09:08:55.391Z,50.71
2023-05-21T09:11:49.419Z,50.09
2023-05-21T09:14:22.760Z,51.24
2023-05-21T09:17:09.247Z,49.93
2023-05-21T09:20:02.322Z,47.79
2023-05-21T09:22:34.814Z,48.61
2023-05-21T09:25:10.762Z,48.18
2023-05-21T09:27:45.765Z,49.32
2023-05-21T09:30:23.051Z,49.27
2023-05-21T09:33:01.824Z,48.01
2023-05-21T09:35:38.305Z,48.12
2023-05-21T09:38:15.080Z,46.85
2023-05-21T09:40:48.064Z,46.66
2023-05-21T09:43:32.292Z,47.25
2023-05-21T09:46:06.021Z,46.06
2023-05-21T09:48:43.815Z,45.56
2023-05-21T09:51:21.754Z,46.45
2023-05-21T09:54:15.615Z,46.59
2023-05-21T09:56:50.508Z,46.80
2023-05-21T09:59:36.920Z,45.27
2023-05-21T10:02:23.947Z,44.89
2023-05-21T10:05:10.183Z,44.71
2023-05-21T10:07:50.721Z,43.95
2023-05-21T10:10:34.049Z,42.23
2023-05-21T10:13:13.811Z,42.52
2023-05-21T10:15:54.429Z,44.33
2023-05-21T10:18:49.426Z,44.57
2023-05-21T10:21:36.599Z,43.95
2023-05-21T10:24:18.674Z,42.55
2023-05-21T10:26:51.620Z,43.99
2023-05-21T10:29:29.261Z,44.35
2023-05-21T10:32:25.320Z,44.83
2023-05-21T10:35:19.154Z,44.49
2023-05-21T10:38:13.360Z,45.34
2023-05-21T10:40:46.723Z,45.17
2023-05-21T10:43:42.527Z,45.25
2023-05-21T10:46:50.639Z,45.47
2023-05-21T10:49:38.937Z,46.52
2023-05-21T10:52:32.393Z,46.99
2023-05-21T10:55:38.055Z,46.20
2023-05-21T10:58:47.488Z,45.87
2023-05-21T11:01:42.832Z,43.94
2023-05-21T11:04:40.239Z,43.59
2023-05-21T11:07:58.512Z,43.88
2023-05-21T11:10:55.141Z,43.64
2023-05-21T11:13:51.553Z,43.20
2023-05-21T11:16:49.877Z,42.47
2023-05-21T11:19:44.062Z,42.79
2023-05-21T11:22:47.375Z,41.95
2023-05-21T11:25:40.192Z,43.45
2023-05-21T11:28:37.856Z,43.37
2023-05-21T11:31:38.189Z,43.45
2023-05-21T11:34:40.919Z,44.00
2023-05-21T11:37:34.600Z,42.59
2023-05-21T11:40:30.256Z,41.58
2023-05-21T11:43:07.326Z,41.21
2023-05-21T11:45:40.841Z,41.08
2023-05-21T11:48:17.727Z,42.06
2023-05-21T11:50:50.337Z,42.23
2023-05-21T11:53:22.786Z,41.19
2023-05-21T11:56:09.937Z,40.68
2023-05-21T11:58:55.235Z,39.04
2023-05-21T12:01:28.284Z,38.03
2023-05-21T12:04:02.503Z,39.48
2023-05-21T12:06:45.552Z,40.11
2023-05-21T12:09:45.330Z,39.15
2023-05-21T12:12:19.514Z,38.70
2023-05-21T12:14:54.061Z,38.00
2023-05-21T12:17:31.676Z,38.18
2023-05-21T12:20:09.081Z,39.05
2023-05-21T12:22:46.016Z,39.12
2023-05-21T12:25:20.302Z,38.36
2023-05-21T12:28:05.506Z,37.23
2023-05-21T12:31:00.108Z,36.74
2023-05-21T12:33:38.333Z,37.84
2023-05-21T12:36:34.243Z,37.10
2023-05-21T12:39:13.474Z,36.37
2023-05-21T12:42:07.692Z,37.95
2023-05-21T12:44:50.967Z,37.41
2023-05-21T12:47:33.831Z,36.38
2023-05-21T12:50:21.710Z,36.16
2023-05-21T12:53:03.788Z,35.02
2023-05-21T12:55:46.540Z,35.66
2023-05-21T12:58:23.093Z,36.29
2023-05-21T13:01:15.958Z,35.92
2023-05-21T13:04:09.497Z,34.95
2023-05-21T13:06:47.781Z,35.92
2023-05-21T13:09:20.613Z,35.47
2023-05-21T13:11:53.765Z,34.96
2023-05-21T13:14:26.182Z,34.86
2023-05-21T13:16:59.350Z,34.05
2023-05-21T13:20:06.508Z,35.46
2023-05-21T13:22:43.682Z,36.25
2023-05-21T13:25:37.655Z,35.79
2023-05-21T13:28:30.836Z,36.41
2023-05-21T13:31:24.859Z,35.84
2023-05-21T13:34:17.534Z,36.17
2023-05-21T13:37:10.824Z,36.61
2023-05-21T13:39:58.290Z,35.76
2023-05-21T13:42:52.117Z,36.73
2023-05-21T13:45:45.185Z,37.62
2023-05-21T13:48:38.803Z,35.94
2023-05-21T13:54:14.293Z,36.82
2023-05-21T13:57:07.662Z,36.89
2023-05-21T14:00:02.578Z,38.36
2023-05-21T14:02:40.299Z,37.39
2023-05-21T14:05:15.971Z,36.96
2023-05-21T14:08:10.559Z,35.86
2023-05-21T14:11:04.976Z,36.44
2023-05-21T14:13:48.911Z,37.33
2023-05-21T14:16:42.014Z,36.70
2023-05-21T14:19:34.742Z,37.10
2023-05-21T14:22:08.160Z,36.98
2023-05-21T14:24:43.682Z,36.69
2023-05-21T14:27:26.468Z,35.91
2023-05-21T14:30:19.349Z,36.29
2023-05-21T14:32:57.869Z,35.16
2023-05-21T14:35:32.116Z,36.35
2023-05-21T14:38:04.868Z,35.54
2023-05-21T14:40:57.965Z,36.56
2023-05-21T14:43:50.848Z,36.56
2023-05-21T14:46:33.662Z,36.28
2023-05-21T14:49:07.054Z,37.04
2023-05-21T14:51:43.744Z,35.37
2023-05-21T14:54:19.318Z,35.19
2023-05-21T14:56:59.612Z,35.74
2023-05-21T14:59:54.644Z,35.72
2023-05-21T15:02:30.409Z,36.06
2023-05-21T15:05:12.904Z,35.09
2023-05-21T15:07:48.785Z,34.01
2023-05-21T15:10:25.301Z,35.11
2023-05-21T15:13:00.770Z,35.50
2023-05-21T15:15:40.283Z,35.35
2023-05-21T15:18:24.968Z,34.43
2023-05-21T15:21:07.731Z,34.02
2023-05-21T15:23:40.437Z,35.57
2023-05-21T15:26:17.132Z,35.20
2023-05-21T15:28:52.141Z,35.17
2023-05-21T15:31:27.624Z,35.10
2023-05-21T15:34:02.802Z,34.57
2023-05-21T15:36:36.918Z,34.61
2023-05-21T15:39:22.480Z,34.73
2023-05-21T15:41:58.098Z,35.21
2023-05-21T15:44:32.394Z,35.02
2023-05-21T15:47:16.016Z,35.01
2023-05-21T15:49:48.259Z,35.20
2023-05-21T15:52:24.051Z,35.19
2023-05-21T15:55:00.033Z,35.76
2023-05-21T15:57:33.396Z,34.74
2023-05-21T16:00:06.605Z,35.07
2023-05-21T16:02:42.199Z,35.20
2023-05-21T16:05:35.785Z,35.79
2023-05-21T16:08:12.309Z,35.74
2023-05-21T16:10:46.101Z,35.49
2023-05-21T16:13:18.952Z,34.47
2023-05-21T16:15:54.289Z,33.27
2023-05-21T16:18:29.330Z,32.26
2023-05-21T16:21:11.039Z,32.05
2023-05-21T16:24:04.149Z,32.23
2023-05-21T16:26:56.966Z,32.08
2023-05-21T16:29:30.738Z,30.72
2023-05-21T16:32:03.280Z,31.29
2023-05-21T16:34:36.776Z,31.44
2023-05-21T16:37:09.939Z,31.55
2023-05-21T16:39:43.922Z,30.76
2023-05-21T16:42:19.704Z,31.22
2023-05-21T16:44:55.582Z,31.23
2023-05-21T16:47:28.391Z,31.58
2023-05-21T16:50:04.290Z,30.72
2023-05-21T16:52:37.361Z,31.11
2023-05-21T16:55:11.409Z,30.65
2023-05-21T16:57:43.965Z,30.89
2023-05-21T17:00:23.476Z,30.75
2023-05-21T17:02:55.107Z,30.82
2023-05-21T17:05:27.812Z,30.87
2023-05-21T17:08:00.617Z,31.33
2023-05-21T17:10:35.745Z,31.73
2023-05-21T17:13:20.706Z,32.55
2023-05-21T17:15:57.941Z,32.90
2023-05-21T17:18:31.495Z,33.95
2023-05-21T17:21:03.821Z,34.86
2023-05-21T17:23:38.125Z,35.11
2023-05-21T17:26:11.212Z,36.00
2023-05-21T17:28:47.172Z,36.49
2023-05-21T17:31:19.930Z,37.31
2023-05-21T17:33:54.337Z,37.96
2023-05-21T17:36:27.197Z,38.41
2023-05-21T17:38:59.822Z,39.36
2023-05-21T17:41:36.001Z,40.05
2023-05-21T17:44:08.664Z,40.29
2023-05-21T17:46:43.035Z,40.63
2023-05-21T17:49:18.703Z,40.84
2023-05-21T17:51:51.362Z,41.69
2023-05-21T17:54:27.109Z,42.11
2023-05-21T17:57:01.101Z,42.52
2023-05-21T17:59:34.181Z,42.89
2023-05-21T18:02:07.552Z,43.39
2023-05-21T18:04:47.370Z,43.77
2023-05-21T18:07:25.750Z,44.15
2023-05-21T18:10:01.591Z,44.87
2023-05-21T18:12:34.288Z,45.04
2023-05-21T18:15:09.985Z,45.55
2023-05-21T18:17:42.880Z,45.94
2023-05-21T18:20:16.916Z,46.37
2023-05-21T18:22:49.638Z,47.19
2023-05-21T18:25:25.259Z,47.99
2023-05-21T18:27:59.738Z,48.60
2023-05-21T18:30:35.719Z,48.95
2023-05-21T18:33:09.499Z,49.58
2023-05-21T18:35:45.339Z,50.17
2023-05-21T18:38:17.722Z,50.60
2023-05-21T18:41:10.549Z,51.89
2023-05-21T18:43:44.004Z,51.82
2023-05-21T18:46:16.684Z,52.94
2023-05-21T18:49:09.682Z,53.09
2023-05-21T18:52:02.566Z,53.82
2023-05-21T18:54:37.570Z,54.20
2023-05-21T18:57:31.395Z,53.86
2023-05-21T19:00:15.389Z,54.69
2023-05-21T19:02:48.639Z,55.33
2023-05-21T19:05:24.588Z,55.07
2023-05-21T19:07:59.513Z,55.17
2023-05-21T19:10:32.662Z,55.37
2023-05-21T19:13:08.630Z,55.74
2023-05-21T19:15:41.477Z,56.30
2023-05-21T19:18:17.708Z,56.76
2023-05-21T19:21:01.237Z,57.03
2023-05-21T19:23:52.001Z,57.18
2023-05-21T19:26:36.054Z,58.36
2023-05-21T19:29:09.669Z,58.74
2023-05-21T19:31:43.181Z,58.69
2023-05-21T19:34:18.162Z,58.65
2023-05-21T19:37:01.440Z,58.91
2023-05-21T19:39:42.320Z,58.80
2023-05-21T19:42:35.509Z,59.57
2023-05-21T19:45:13.452Z,60.29
2023-05-21T19:47:46.201Z,60.44
2023-05-21T19:50:19.521Z,60.95
2023-05-21T19:52:52.301Z,61.02
2023-05-21T19:55:31.439Z,61.87
2023-05-21T19:58:04.156Z,61.94
2023-05-21T20:00:38.949Z,61.87
2023-05-21T20:03:15.226Z,61.81
2023-05-21T20:05:48.182Z,62.18
2023-05-21T20:08:22.338Z,62.54
2023-05-21T20:11:08.077Z,63.14
2023-05-21T20:13:41.713Z,63.53
2023-05-21T20:16:24.844Z,64.24
2023-05-21T20:19:01.941Z,64.32
2023-05-21T20:21:37.380Z,64.68
2023-05-21T20:24:12.645Z,65.20
2023-05-21T20:26:47.641Z,65.35
2023-05-21T20:29:20.287Z,65.53
2023-05-21T20:31:56.467Z,65.66
2023-05-21T20:34:29.840Z,65.96
2023-05-21T20:37:05.314Z,66.20
2023-05-21T20:39:38.233Z,65.93
2023-05-21T20:42:13.942Z,66.50
2023-05-21T20:44:46.752Z,67.46
2023-05-21T20:47:42.650Z,68.17
2023-05-21T20:50:17.805Z,68.68
2023-05-21T20:52:52.062Z,68.75
2023-05-21T20:55:24.833Z,68.61
2023-05-21T20:58:00.222Z,68.57
2023-05-21T21:00:35.802Z,68.79
2023-05-21T21:03:10.669Z,69.00
2023-05-21T21:05:43.325Z,69.52
2023-05-21T21:08:17.391Z,70.22
2023-05-21T21:10:51.464Z,70.89
2023-05-21T21:13:23.890Z,71.23
2023-05-21T21:15:56.318Z,71.31
2023-05-21T21:18:28.821Z,71.55
2023-05-21T21:21:04.452Z,71.93
2023-05-21T21:23:36.952Z,72.10
2023-05-21T21:26:12.449Z,72.17
2023-05-21T21:28:46.626Z,72.67
2023-05-21T21:31:22.930Z,72.43
2023-05-21T21:34:14.230Z,72.93
2023-05-21T21:37:00.590Z,72.72
2023-05-21T21:39:46.849Z,73.33
2023-05-21T21:42:25.321Z,73.13
2023-05-21T21:45:20.038Z,73.47
2023-05-21T21:48:12.797Z,74.02
2023-05-21T21:51:05.118Z,74.20
2023-05-21T21:53:57.921Z,74.43
2023-05-21T21:56:50.794Z,75.05
2023-05-21T21:59:43.727Z,74.84
2023-05-21T22:02:36.682Z,75.16
2023-05-21T22:05:31.508Z,75.28
2023-05-21T22:08:25.449Z,75.66
2023-05-21T22:11:18.701Z,75.64
2023-05-21T22:14:11.703Z,76.16
2023-05-21T22:16:55.338Z,76.35
2023-05-21T22:19:48.222Z,76.75
2023-05-21T22:22:41.101Z,77.06
2023-05-21T22:25:33.865Z,77.14
2023-05-21T22:28:26.687Z,77.27
2023-05-21T22:31:19.826Z,77.53
2023-05-21T22:34:12.480Z,77.97
2023-05-21T22:36:58.176Z,78.30
2023-05-21T22:39:42.564Z,78.41
2023-05-21T22:42:36.658Z,78.44
2023-05-21T22:45:30.654Z,78.71
2023-05-21T22:48:25.123Z,78.93
2023-05-21T22:51:11.757Z,79.11
2023-05-21T22:54:04.919Z,79.32
2023-05-21T22:56:57.430Z,79.62
2023-05-21T22:59:50.256Z,79.58
2023-05-21T23:02:43.094Z,79.81
2023-05-21T23:05:34.973Z,79.87
2023-05-21T23:08:28.049Z,79.87
2023-05-21T23:11:22.421Z,79.93
2023-05-21T23:14:15.306Z,80.20
2023-05-21T23:17:08.345Z,80.30
2023-05-21T23:20:01.125Z,80.49
2023-05-21T23:22:53.262Z,80.54
2023-05-21T23:25:46.325Z,80.64
2023-05-21T23:28:43.343Z,80.91
2023-05-21T23:31:36.836Z,81.03
2023-05-21T23:34:29.690Z,81.21
2023-05-21T23:37:22.739Z,81.41
2023-05-21T23:40:10.534Z,81.61
2023-05-21T23:43:01.968Z,81.30
2023-05-21T23:45:54.868Z,81.48
2023-05-21T23:48:30.551Z,81.62
2023-05-21T23:51:22.898Z,81.54
2023-05-21T23:54:09.239Z,81.53
2023-05-21T23:56:54.595Z,81.69
2023-05-21T23:59:47.161Z,81.86
